Time;durP1;ratioP1;P1;durP2;ratioP2;P2;SDS_P1;SDS_P2;PMS_P1;PMS_P2;Temp;Humidity;BMP_temperature;BMP_pressure;BME280_temperature;BME280_humidity;BME280_pressure;Samples;Min_cycle;Max_cycle;Signal;HPM_P1;HPM_P2
2022/07/29 00:01:52;;;;;;;6.80;6.50;;;;;;;-143.83;100.00;62900.06;5113622;28;20375;-62
2022/07/29 00:04:18;;;;;;;6.65;6.35;;;;;;;-143.83;100.00;62900.06;5114180;28;20103;-62
2022/07/29 00:06:44;;;;;;;6.90;6.60;;;;;;;-143.83;100.00;62900.06;5113751;28;20020;-62
2022/07/29 00:09:09;;;;;;;7.05;6.75;;;;;;;-143.83;100.00;62900.06;5112717;28;20035;-62
2022/07/29 00:11:35;;;;;;;7.10;6.80;;;;;;;-143.83;100.00;62900.06;5113509;28;20027;-62
2022/07/29 00:14:00;;;;;;;6.63;6.32;;;;;;;-143.83;100.00;62900.06;5119967;27;20023;-62
2022/07/29 00:16:26;;;;;;;7.05;6.75;;;;;;;-143.83;100.00;62900.06;5118009;27;20039;-63
2022/07/29 00:18:51;;;;;;;6.60;6.30;;;;;;;-143.83;100.00;62900.06;5098830;28;20028;-62
2022/07/29 00:21:16;;;;;;;6.72;6.43;;;;;;;-143.83;100.00;62900.06;5113458;28;20502;-63
2022/07/29 00:23:42;;;;;;;6.70;6.40;;;;;;;-143.83;100.00;62900.06;5113453;28;20072;-62
2022/07/29 00:26:08;;;;;;;6.88;6.57;;;;;;;-143.83;100.00;62900.06;5111993;28;20047;-62
2022/07/29 00:28:33;;;;;;;6.80;6.50;;;;;;;-143.83;100.00;62900.06;5113486;28;20051;-62
2022/07/29 00:30:59;;;;;;;6.60;6.30;;;;;;;-143.83;100.00;62900.06;5113356;27;20448;-63
2022/07/29 00:33:24;;;;;;;6.70;6.40;;;;;;;-143.83;100.00;62900.06;5105451;28;20085;-62
2022/07/29 00:35:50;;;;;;;6.90;6.60;;;;;;;-143.83;100.00;62900.06;5106566;28;20031;-62
2022/07/29 00:38:17;;;;;;;6.90;6.60;;;;;;;-143.83;100.00;62900.06;5113461;28;20019;-62
2022/07/29 00:40:44;;;;;;;6.80;6.50;;;;;;;-143.83;100.00;62900.06;5112863;28;20051;-62
2022/07/29 00:43:10;;;;;;;6.78;6.47;;;;;;;-143.83;100.00;62900.06;5112986;27;20559;-62
2022/07/29 00:45:35;;;;;;;6.78;6.47;;;;;;;-143.83;100.00;62900.06;5113033;28;20020;-62
2022/07/29 00:48:03;;;;;;;6.88;6.57;;;;;;;-143.83;100.00;62900.06;5110066;27;20028;-62
2022/07/29 00:50:28;;;;;;;6.65;6.35;;;;;;;-143.83;100.00;62900.06;5113327;28;20030;-62
2022/07/29 00:52:54;;;;;;;6.70;6.40;;;;;;;-143.83;100.00;62900.06;5112845;28;20486;-62
2022/07/29 00:55:20;;;;;;;6.85;6.55;;;;;;;-143.83;100.00;62900.06;5118786;27;20035;-62
2022/07/29 00:57:46;;;;;;;6.63;6.32;;;;;;;-143.83;100.00;62900.06;5119071;27;20031;-62
2022/07/29 01:00:23;;;;;;;6.53;6.22;;;;;;;-143.83;100.00;62900.06;5113060;28;20035;-62
2022/07/29 01:02:49;;;;;;;6.88;6.57;;;;;;;-143.83;100.00;62900.06;5111161;28;20065;-62
2022/07/29 01:05:17;;;;;;;6.90;6.60;;;;;;;-143.83;100.00;62900.06;5120331;27;20556;-63
2022/07/29 01:07:45;;;;;;;6.70;6.40;;;;;;;-143.83;100.00;62900.06;5099185;28;20034;-62
2022/07/29 01:10:13;;;;;;;6.80;6.50;;;;;;;-143.83;100.00;62900.06;5112404;28;20049;-63
2022/07/29 01:12:39;;;;;;;6.60;6.30;;;;;;;-143.83;100.00;62900.06;5112267;28;20015;-62
2022/07/29 01:15:07;;;;;;;6.72;6.43;;;;;;;-143.83;100.00;62900.06;5111206;28;20506;-63
2022/07/29 01:17:38;;;;;;;6.80;6.50;;;;;;;-143.83;100.00;62900.06;5112274;28;20027;-62
2022/07/29 01:20:12;;;;;;;6.60;6.30;;;;;;;-143.83;100.00;62900.06;5112573;28;20104;-63
2022/07/29 01:22:41;;;;;;;7.00;6.70;;;;;;;-143.83;100.00;62900.06;5112147;28;20039;-62
2022/07/29 01:25:31;;;;;;;6.80;6.50;;;;;;;-143.83;100.00;62900.06;5112410;28;20027;-63
2022/07/29 01:28:35;;;;;;;6.68;6.38;;;;;;;-143.83;100.00;62900.06;5101988;28;20486;-62
2022/07/29 01:31:04;;;;;;;7.00;6.70;;;;;;;-143.83;100.00;62900.06;5090635;28;20126;-63
2022/07/29 01:33:50;;;;;;;6.90;6.60;;;;;;;-143.83;100.00;62900.06;5106568;28;20015;-62
2022/07/29 01:37:02;;;;;;;6.70;6.40;;;;;;;-143.83;100.00;62900.06;5112612;28;20046;-62
2022/07/29 01:39:32;;;;;;;6.68;6.38;;;;;;;-143.83;100.00;62900.06;5110251;28;20472;-62
2022/07/29 01:42:07;;;;;;;6.90;6.60;;;;;;;-143.83;100.00;62900.06;5112040;28;20502;-63
2022/07/29 01:44:37;;;;;;;6.60;6.30;;;;;;;-143.83;100.00;62900.06;5107612;28;20040;-62
2022/07/29 01:47:10;;;;;;;6.60;6.30;;;;;;;-143.83;100.00;62900.06;5112108;28;20047;-62
2022/07/29 01:49:41;;;;;;;6.88;6.50;;;;;;;-143.83;100.00;62900.06;5112072;28;20023;-62
2022/07/29 01:52:18;;;;;;;6.65;6.35;;;;;;;-143.83;100.00;62900.06;5122628;28;20030;-62
2022/07/29 01:54:51;;;;;;;6.68;6.38;;;;;;;-143.83;100.00;62900.06;5111424;27;20058;-62
2022/07/29 01:57:20;;;;;;;6.53;6.22;;;;;;;-143.83;100.00;62900.06;5117623;28;20115;-62
2022/07/29 01:59:48;;;;;;;6.68;6.38;;;;;;;-143.83;100.00;62900.06;5111765;28;20023;-62
2022/07/29 02:02:18;;;;;;;6.75;6.45;;;;;;;-143.83;100.00;62900.06;5108111;28;20103;-63
2022/07/29 02:04:48;;;;;;;6.78;6.47;;;;;;;-143.83;100.00;62900.06;5104089;28;20038;-61
2022/07/29 02:07:17;;;;;;;6.70;6.40;;;;;;;-143.83;100.00;62900.06;5111894;28;20020;-63
2022/07/29 02:09:45;;;;;;;6.50;6.20;;;;;;;-143.83;100.00;62900.06;5112095;28;20023;-63
2022/07/29 02:12:12;;;;;;;6.70;6.40;;;;;;;-143.83;100.00;62900.06;5103527;28;20106;-63
2022/07/29 02:14:45;;;;;;;6.70;6.40;;;;;;;-143.83;100.00;62900.06;5105517;28;20027;-63
2022/07/29 02:17:13;;;;;;;6.85;6.55;;;;;;;-143.83;100.00;62900.06;5110800;28;20027;-62
2022/07/29 02:19:40;;;;;;;6.60;6.30;;;;;;;-143.83;100.00;62900.06;5112101;28;20027;-62
2022/07/29 02:22:07;;;;;;;6.78;6.47;;;;;;;-143.83;100.00;62900.06;5111724;28;20707;-62
2022/07/29 02:24:36;;;;;;;6.53;6.22;;;;;;;-143.83;100.00;62900.06;5111672;28;20036;-61
2022/07/29 02:27:03;;;;;;;6.80;6.50;;;;;;;-143.83;100.00;62900.06;5099014;28;20099;-62
2022/07/29 02:29:31;;;;;;;6.88;6.57;;;;;;;-143.83;100.00;62900.06;5105825;28;20027;-62
2022/07/29 02:31:58;;;;;;;6.85;6.55;;;;;;;-143.83;100.00;62900.06;5111547;28;20015;-62
2022/07/29 02:34:25;;;;;;;6.72;6.43;;;;;;;-143.83;100.00;62900.06;5111763;28;20050;-63
2022/07/29 02:36:51;;;;;;;6.90;6.60;;;;;;;-143.83;100.00;62900.06;5111379;28;20024;-61
2022/07/29 02:39:18;;;;;;;6.68;6.38;;;;;;;-143.83;100.00;62900.06;5111602;28;20031;-62
2022/07/29 02:41:51;;;;;;;6.63;6.32;;;;;;;-143.83;100.00;62900.06;5110575;28;20048;-62
2022/07/29 02:44:19;;;;;;;6.80;6.50;;;;;;;-143.83;100.00;62900.06;5110732;28;20028;-62
2022/07/29 02:46:52;;;;;;;6.60;6.30;;;;;;;-143.83;100.00;62900.06;5111329;28;20028;-62
2022/07/29 02:49:21;;;;;;;6.90;6.60;;;;;;;-143.83;100.00;62900.06;5124066;28;20023;-63
2022/07/29 02:51:54;;;;;;;6.70;6.40;;;;;;;-143.83;100.00;62900.06;5111612;28;20085;-62
2022/07/29 02:54:44;;;;;;;6.70;6.40;;;;;;;-143.83;100.00;62900.06;5111221;28;20102;-63
2022/07/29 02:57:17;;;;;;;6.80;6.50;;;;;;;-143.83;100.00;62900.06;5106631;28;20039;-63
2022/07/29 02:59:45;;;;;;;6.72;6.43;;;;;;;-143.83;100.00;62900.06;5115157;28;20458;-63
2022/07/29 03:02:13;;;;;;;6.57;6.28;;;;;;;-143.83;100.00;62900.06;5105786;28;20027;-62
2022/07/29 03:04:41;;;;;;;6.78;6.47;;;;;;;-143.83;100.00;62900.06;5109209;27;20076;-62
2022/07/29 03:07:07;;;;;;;6.80;6.50;;;;;;;-143.83;100.00;62900.06;5107323;28;20099;-62
2022/07/29 03:09:33;;;;;;;6.90;6.60;;;;;;;-143.83;100.00;62900.06;5113890;28;20102;-61
2022/07/29 03:11:59;;;;;;;6.70;6.40;;;;;;;-143.83;100.00;62900.06;5114743;28;20482;-62
2022/07/29 03:14:26;;;;;;;6.70;6.40;;;;;;;-143.83;100.00;62900.06;5114852;28;20039;-62
2022/07/29 03:16:52;;;;;;;6.85;6.55;;;;;;;-143.83;100.00;62900.06;5114900;28;20035;-62
2022/07/29 03:19:20;;;;;;;6.78;6.47;;;;;;;-143.83;100.00;62900.06;5113879;28;20424;-63
2022/07/29 03:21:45;;;;;;;6.78;6.47;;;;;;;-143.83;100.00;62900.06;5109201;27;20114;-62
2022/07/29 03:24:27;;;;;;;6.97;6.68;;;;;;;-143.83;100.00;62900.06;5114576;28;20112;-62
2022/07/29 03:26:55;;;;;;;7.00;6.70;;;;;;;-143.83;100.00;62900.06;5114857;28;20019;-62
2022/07/29 03:29:20;;;;;;;6.72;6.43;;;;;;;-143.83;100.00;62900.06;5114658;28;20027;-62
2022/07/29 03:31:46;;;;;;;7.10;6.80;;;;;;;-143.83;100.00;62900.06;5114667;28;20473;-62
2022/07/29 03:34:11;;;;;;;6.90;6.60;;;;;;;-143.83;100.00;62900.06;5114613;28;20084;-62
2022/07/29 03:36:37;;;;;;;6.85;6.55;;;;;;;-143.83;100.00;62900.06;5113149;28;20384;-62
2022/07/29 03:39:04;;;;;;;6.80;6.50;;;;;;;-143.83;100.00;62900.06;5114340;27;20031;-62
2022/07/29 03:41:31;;;;;;;7.10;6.80;;;;;;;-143.83;100.00;62900.06;5113734;28;20543;-63
2022/07/29 03:43:58;;;;;;;7.10;6.80;;;;;;;-143.83;100.00;62900.06;5118975;27;20027;-63
2022/07/29 03:46:26;;;;;;;7.20;6.90;;;;;;;-143.83;100.00;62900.06;5121740;27;20015;-62
2022/07/29 03:48:57;;;;;;;7.10;6.80;;;;;;;-143.83;100.00;62900.06;5113379;28;20088;-63
2022/07/29 03:51:23;;;;;;;6.85;6.55;;;;;;;-143.83;100.00;62900.06;5114181;28;20360;-63
2022/07/29 03:53:48;;;;;;;7.10;6.80;;;;;;;-143.83;100.00;62900.06;5112950;27;20029;-63
2022/07/29 03:56:16;;;;;;;7.05;6.75;;;;;;;-143.83;100.00;62900.06;5114432;27;20030;-63
2022/07/29 03:58:44;;;;;;;7.07;6.78;;;;;;;-143.83;100.00;62900.06;5113944;28;20499;-63
2022/07/29 04:01:10;;;;;;;7.00;6.70;;;;;;;-143.83;100.00;62900.06;5105556;28;20471;-62
2022/07/29 04:03:36;;;;;;;6.95;6.65;;;;;;;-143.83;100.00;62900.06;5099091;28;20027;-62
2022/07/29 04:06:08;;;;;;;7.10;6.80;;;;;;;-143.83;100.00;62900.06;5109393;28;20087;-63
2022/07/29 04:08:34;;;;;;;6.80;6.50;;;;;;;-143.83;100.00;62900.06;5111446;28;20046;-63
2022/07/29 04:11:00;;;;;;;7.03;6.72;;;;;;;-143.83;100.00;62900.06;5111297;28;20030;-62
2022/07/29 04:13:26;;;;;;;6.90;6.60;;;;;;;-143.83;100.00;62900.06;5114619;28;20020;-62
2022/07/29 04:15:51;;;;;;;6.85;6.55;;;;;;;-143.83;100.00;62900.06;5113053;28;20076;-62
2022/07/29 04:18:17;;;;;;;7.05;6.75;;;;;;;-143.83;100.00;62900.06;5112728;28;20027;-62
2022/07/29 04:20:42;;;;;;;7.00;6.70;;;;;;;-143.83;100.00;62900.06;5113199;28;20027;-63
2022/07/29 04:23:08;;;;;;;7.10;6.80;;;;;;;-143.83;100.00;62900.06;5113545;28;20028;-62
2022/07/29 04:25:37;;;;;;;7.03;6.72;;;;;;;-143.83;100.00;62900.06;5111862;28;20520;-63
2022/07/29 04:28:03;;;;;;;6.97;6.68;;;;;;;-143.83;100.00;62900.06;5112076;28;20433;-63
2022/07/29 04:30:33;;;;;;;6.95;6.65;;;;;;;-143.83;100.00;62900.06;5102533;28;20054;-63
2022/07/29 04:33:00;;;;;;;6.90;6.60;;;;;;;-143.83;100.00;62900.06;5100353;28;20027;-63
2022/07/29 04:35:26;;;;;;;6.88;6.57;;;;;;;-143.83;100.00;62900.06;5113121;28;20028;-63
2022/07/29 04:37:52;;;;;;;7.15;6.85;;;;;;;-143.83;100.00;62900.06;5113012;28;20041;-63
2022/07/29 04:40:17;;;;;;;6.90;6.60;;;;;;;-143.83;100.00;62900.06;5106325;28;20024;-63
2022/07/29 04:42:43;;;;;;;7.00;6.70;;;;;;;-143.83;100.00;62900.06;5112062;28;20062;-62
2022/07/29 04:45:09;;;;;;;7.13;6.82;;;;;;;-143.83;100.00;62900.06;5106384;27;20036;-63
2022/07/29 04:47:34;;;;;;;7.03;6.72;;;;;;;-143.83;100.00;62900.06;5114209;27;20023;-63
2022/07/29 04:50:00;;;;;;;7.05;6.75;;;;;;;-143.83;100.00;62900.06;5112121;28;20372;-63
2022/07/29 04:52:26;;;;;;;7.25;6.95;;;;;;;-143.83;100.00;62900.06;5099558;28;20023;-63
2022/07/29 04:54:52;;;;;;;7.13;6.82;;;;;;;-143.83;100.00;62900.06;5109035;28;20049;-63
2022/07/29 04:57:17;;;;;;;6.95;6.65;;;;;;;-143.83;100.00;62900.06;5112338;28;20023;-63
2022/07/29 04:59:43;;;;;;;7.10;6.80;;;;;;;-143.83;100.00;62900.06;5104647;28;20019;-63
2022/07/29 05:02:09;;;;;;;7.10;6.80;;;;;;;-143.83;100.00;62900.06;5107154;27;20024;-63
2022/07/29 05:04:35;;;;;;;7.07;6.78;;;;;;;-143.83;100.00;62900.06;5113659;27;20529;-63
2022/07/29 05:07:00;;;;;;;7.15;6.85;;;;;;;-143.83;100.00;62900.06;5112168;28;20046;-63
2022/07/29 05:09:26;;;;;;;7.65;7.35;;;;;;;-143.83;100.00;62900.06;5109609;27;20035;-63
2022/07/29 05:11:51;;;;;;;7.32;7.03;;;;;;;-143.83;100.00;62900.06;5110314;28;20145;-64
2022/07/29 05:14:17;;;;;;;7.32;7.03;;;;;;;-143.83;100.00;62900.06;5111005;28;20076;-64
2022/07/29 05:16:43;;;;;;;7.20;6.90;;;;;;;-143.83;100.00;62900.06;5110748;28;20055;-64
2022/07/29 05:19:08;;;;;;;6.75;6.45;;;;;;;-143.83;100.00;62900.06;5110038;28;20039;-63
2022/07/29 05:21:34;;;;;;;7.07;6.78;;;;;;;-143.83;100.00;62900.06;5110944;27;20104;-65
2022/07/29 05:24:00;;;;;;;7.10;6.80;;;;;;;-143.83;100.00;62900.06;5107107;28;20383;-62
2022/07/29 05:26:25;;;;;;;7.13;6.82;;;;;;;-143.83;100.00;62900.06;5100823;28;20091;-64
2022/07/29 05:28:51;;;;;;;6.90;6.60;;;;;;;-143.83;100.00;62900.06;5109402;28;20092;-63
2022/07/29 05:31:16;;;;;;;6.88;6.57;;;;;;;-143.83;100.00;62900.06;5111114;28;20664;-64
2022/07/29 05:33:42;;;;;;;7.13;6.82;;;;;;;-143.83;100.00;62900.06;5110979;27;20398;-63
2022/07/29 05:36:07;;;;;;;7.63;7.32;;;;;;;-143.83;100.00;62900.06;5111181;27;20485;-64
2022/07/29 05:38:36;;;;;;;7.35;7.05;;;;;;;-143.83;100.00;62900.06;5115418;27;20104;-64
2022/07/29 05:41:02;;;;;;;7.18;6.88;;;;;;;-143.83;100.00;62900.06;5110551;28;20028;-63
2022/07/29 05:43:28;;;;;;;7.00;6.70;;;;;;;-143.83;100.00;62900.06;5110693;28;20037;-63
2022/07/29 05:45:54;;;;;;;7.07;6.78;;;;;;;-143.83;100.00;62900.06;5110518;28;20012;-63
2022/07/29 05:48:19;;;;;;;7.30;7.00;;;;;;;-143.83;100.00;62900.06;5110373;28;20028;-63
2022/07/29 05:50:45;;;;;;;7.05;6.75;;;;;;;-143.83;100.00;62900.06;5110986;28;20046;-64
2022/07/29 05:53:10;;;;;;;7.40;7.10;;;;;;;-143.83;100.00;62900.06;5104826;28;20032;-63
2022/07/29 05:55:36;;;;;;;7.20;6.90;;;;;;;-143.83;100.00;62900.06;5107854;28;20050;-63
2022/07/29 05:58:02;;;;;;;7.30;7.00;;;;;;;-143.83;100.00;62900.06;5107746;28;20474;-63
2022/07/29 06:00:27;;;;;;;7.10;6.80;;;;;;;-143.83;100.00;62900.06;5104569;28;20027;-64
2022/07/29 06:02:53;;;;;;;7.18;6.88;;;;;;;-143.83;100.00;62900.06;5099624;28;20023;-64
2022/07/29 06:05:18;;;;;;;7.25;6.95;;;;;;;-143.83;100.00;62900.06;5109818;28;20057;-63
2022/07/29 06:07:44;;;;;;;7.07;6.78;;;;;;;-143.83;100.00;62900.06;5110790;28;20027;-62
2022/07/29 06:10:10;;;;;;;7.05;6.75;;;;;;;-143.83;100.00;62900.06;5106264;28;20115;-63
2022/07/29 06:12:35;;;;;;;7.20;6.90;;;;;;;-143.83;100.00;62900.06;5111790;28;20028;-63
2022/07/29 06:15:01;;;;;;;6.95;6.65;;;;;;;-143.83;100.00;62900.06;5111687;28;20471;-63
2022/07/29 06:17:27;;;;;;;7.00;6.70;;;;;;;-143.83;100.00;62900.06;5111527;28;20027;-62
2022/07/29 06:19:53;;;;;;;6.80;6.50;;;;;;;-143.83;100.00;62900.06;5112100;28;20048;-62
2022/07/29 06:22:18;;;;;;;6.90;6.60;;;;;;;-143.83;100.00;62900.06;5110225;28;20016;-63
2022/07/29 06:24:44;;;;;;;7.30;7.00;;;;;;;-143.83;100.00;62900.06;5111284;28;20032;-65
2022/07/29 06:27:12;;;;;;;7.85;7.55;;;;;;;-143.83;100.00;62900.06;5108709;28;20043;-62
2022/07/29 06:29:38;;;;;;;7.13;6.82;;;;;;;-143.83;100.00;62900.06;5108896;28;20019;-62
2022/07/29 06:32:04;;;;;;;7.10;6.80;;;;;;;-143.83;100.00;62900.06;5112800;28;20600;-63
2022/07/29 06:34:30;;;;;;;7.00;6.70;;;;;;;-143.83;100.00;62900.06;5113250;27;20096;-63
2022/07/29 06:36:55;;;;;;;7.30;7.00;;;;;;;-143.83;100.00;62900.06;5110790;28;20467;-62
2022/07/29 06:39:21;;;;;;;7.45;7.15;;;;;;;-143.83;100.00;62900.06;5109061;28;20031;-64
2022/07/29 06:41:48;;;;;;;7.78;7.47;;;;;;;-143.83;100.00;62900.06;5111006;28;20502;-64
2022/07/29 06:44:14;;;;;;;7.60;7.30;;;;;;;-143.83;100.00;62900.06;5111288;27;20056;-64
2022/07/29 06:46:40;;;;;;;8.00;7.70;;;;;;;-143.83;100.00;62900.06;5111326;28;20097;-63
2022/07/29 06:49:05;;;;;;;7.35;7.05;;;;;;;-143.83;100.00;62900.06;5110980;28;20032;-63
2022/07/29 06:51:31;;;;;;;7.43;7.13;;;;;;;-143.83;100.00;62900.06;5097605;28;20036;-64
2022/07/29 06:53:57;;;;;;;7.68;7.38;;;;;;;-143.83;100.00;62900.06;5110550;28;20024;-63
2022/07/29 06:56:23;;;;;;;6.97;6.68;;;;;;;-143.83;100.00;62900.06;5110999;28;20027;-63
2022/07/29 06:58:48;;;;;;;7.30;7.00;;;;;;;-143.83;100.00;62900.06;5111628;28;20020;-64
2022/07/29 07:01:14;;;;;;;7.63;7.32;;;;;;;-143.83;100.00;62900.06;5110819;27;20032;-63
2022/07/29 07:03:39;;;;;;;7.30;7.00;;;;;;;-143.83;100.00;62900.06;5111551;28;20506;-64
2022/07/29 07:06:05;;;;;;;7.45;7.15;;;;;;;-143.83;100.00;62900.06;5096781;28;20493;-63
2022/07/29 07:08:30;;;;;;;7.55;7.25;;;;;;;-143.83;100.00;62900.06;5105734;28;20313;-63
2022/07/29 07:10:56;;;;;;;7.43;7.13;;;;;;;-143.83;100.00;62900.06;5110542;28;20055;-63
2022/07/29 07:13:23;;;;;;;7.32;7.03;;;;;;;-143.83;100.00;62900.06;5111222;28;20023;-64
2022/07/29 07:15:48;;;;;;;7.15;6.85;;;;;;;-143.83;100.00;62900.06;5111096;28;20475;-64
2022/07/29 07:18:15;;;;;;;7.40;7.10;;;;;;;-143.83;100.00;62900.06;5109744;27;20043;-62
2022/07/29 07:20:41;;;;;;;7.18;6.88;;;;;;;-143.83;100.00;62900.06;5111198;28;20024;-63
2022/07/29 07:23:07;;;;;;;7.47;7.18;;;;;;;-143.83;100.00;62900.06;5105942;28;20038;-64
2022/07/29 07:25:32;;;;;;;7.35;7.05;;;;;;;-143.83;100.00;62900.06;5107065;28;20047;-64
2022/07/29 07:27:58;;;;;;;7.32;7.03;;;;;;;-143.83;100.00;62900.06;5110981;28;20394;-63
2022/07/29 07:30:23;;;;;;;7.13;6.82;;;;;;;-143.83;100.00;62900.06;5111677;27;20031;-63
2022/07/29 07:32:49;;;;;;;7.57;7.28;;;;;;;-143.83;100.00;62900.06;5100699;28;20023;-63
2022/07/29 07:35:15;;;;;;;8.02;7.72;;;;;;;-143.83;100.00;62900.06;5104889;27;20423;-64
2022/07/29 07:37:41;;;;;;;7.38;7.07;;;;;;;-143.83;100.00;62900.06;5111255;28;20027;-63
2022/07/29 07:40:08;;;;;;;7.50;7.20;;;;;;;-143.83;100.00;62900.06;5105247;28;20437;-64
2022/07/29 07:42:34;;;;;;;7.28;6.97;;;;;;;-143.83;100.00;62900.06;5107310;28;20060;-65
2022/07/29 07:44:59;;;;;;;7.07;6.78;;;;;;;-143.83;100.00;62900.06;5110793;28;20027;-64
2022/07/29 07:47:25;;;;;;;7.10;6.80;;;;;;;-143.83;100.00;62900.06;5102404;28;20019;-64
2022/07/29 07:49:51;;;;;;;7.50;7.20;;;;;;;-143.83;100.00;62900.06;5110383;28;20024;-64
2022/07/29 07:52:17;;;;;;;7.20;6.90;;;;;;;-143.83;100.00;62900.06;5110236;27;20239;-63
2022/07/29 07:54:44;;;;;;;7.30;7.00;;;;;;;-143.83;100.00;62900.06;5112193;27;20432;-64
2022/07/29 07:57:11;;;;;;;6.80;6.50;;;;;;;-143.83;100.00;62900.06;5109627;28;20028;-65
2022/07/29 07:59:36;;;;;;;7.28;6.97;;;;;;;-143.83;100.00;62900.06;5109726;28;20026;-64
2022/07/29 08:02:02;;;;;;;7.20;6.90;;;;;;;-143.83;100.00;62900.06;5097394;28;20428;-65
2022/07/29 08:04:28;;;;;;;7.40;7.10;;;;;;;-143.83;100.00;62900.06;5111370;28;20020;-64
2022/07/29 08:06:56;;;;;;;7.20;6.90;;;;;;;-143.83;100.00;62900.06;5111127;28;20020;-63
2022/07/29 08:09:23;;;;;;;7.38;7.07;;;;;;;-143.83;100.00;62900.06;5110257;27;20088;-63
2022/07/29 08:11:48;;;;;;;7.80;7.50;;;;;;;-143.83;100.00;62900.06;5110446;28;20023;-64
2022/07/29 08:14:14;;;;;;;7.20;6.90;;;;;;;-143.83;100.00;62900.06;5109097;28;20108;-66
2022/07/29 08:16:41;;;;;;;7.00;6.70;;;;;;;-143.83;100.00;62900.06;5107465;28;20050;-65
2022/07/29 08:19:06;;;;;;;7.35;7.05;;;;;;;-143.83;100.00;62900.06;5101845;28;20044;-64
2022/07/29 08:21:32;;;;;;;7.10;6.80;;;;;;;-143.83;100.00;62900.06;5110175;28;20024;-63
2022/07/29 08:26:43;;;;;;;6.90;6.60;;;;;;;-143.83;100.00;62900.06;5103451;27;20089;-64
2022/07/29 08:29:09;;;;;;;7.30;7.00;;;;;;;-143.83;100.00;62900.06;5103020;28;20030;-64
2022/07/29 08:31:36;;;;;;;7.32;7.03;;;;;;;-143.83;100.00;62900.06;5106228;28;20069;-62
2022/07/29 08:34:02;;;;;;;7.40;7.10;;;;;;;-143.83;100.00;62900.06;5109335;28;20023;-64
2022/07/29 08:36:28;;;;;;;7.70;7.40;;;;;;;-143.83;100.00;62900.06;5108968;28;20041;-64
2022/07/29 08:38:53;;;;;;;7.28;6.97;;;;;;;-143.83;100.00;62900.06;5109626;28;20024;-63
2022/07/29 08:41:20;;;;;;;7.25;6.95;;;;;;;-143.83;100.00;62900.06;5109903;28;20055;-64
2022/07/29 08:43:46;;;;;;;7.38;7.07;;;;;;;-143.83;100.00;62900.06;5101146;27;20030;-64
2022/07/29 08:46:12;;;;;;;7.20;6.90;;;;;;;-143.83;100.00;62900.06;5108513;28;20098;-65
2022/07/29 08:48:39;;;;;;;7.30;7.00;;;;;;;-143.83;100.00;62900.06;5105091;28;20118;-63
2022/07/29 08:51:07;;;;;;;7.28;6.97;;;;;;;-143.83;100.00;62900.06;5110660;28;20059;-64
2022/07/29 08:53:33;;;;;;;7.28;6.97;;;;;;;-143.83;100.00;62900.06;5109777;28;20383;-65
2022/07/29 08:55:59;;;;;;;7.03;6.72;;;;;;;-143.83;100.00;62900.06;5108436;28;20500;-63
2022/07/29 08:58:27;;;;;;;7.25;6.95;;;;;;;-143.83;100.00;62900.06;5109298;28;20031;-65
2022/07/29 09:00:54;;;;;;;7.30;7.00;;;;;;;-143.83;100.00;62900.06;5104276;27;20085;-64
2022/07/29 09:03:23;;;;;;;7.18;6.88;;;;;;;-143.83;100.00;62900.06;5101567;28;20036;-64
2022/07/29 09:05:49;;;;;;;7.25;6.95;;;;;;;-143.83;100.00;62900.06;5106647;28;20558;-64
2022/07/29 09:08:16;;;;;;;7.30;7.00;;;;;;;-143.83;100.00;62900.06;5108971;28;20118;-64
2022/07/29 09:10:43;;;;;;;7.47;7.18;;;;;;;-143.83;100.00;62900.06;5107837;28;20023;-64
2022/07/29 09:13:08;;;;;;;7.30;7.00;;;;;;;-143.83;100.00;62900.06;5103297;28;20558;-63
2022/07/29 09:15:35;;;;;;;7.30;7.00;;;;;;;-143.83;100.00;62900.06;5101364;28;20098;-64
2022/07/29 09:18:01;;;;;;;7.30;7.00;;;;;;;-143.83;100.00;62900.06;5108476;27;20028;-63
2022/07/29 09:21:57;;;;;;;7.28;6.97;;;;;;;-143.83;100.00;62900.06;5107649;28;20032;-64
2022/07/29 09:23:14;;;;;;;7.20;6.90;;;;;;;-143.83;100.00;62900.06;5101321;27;20117;-63
2022/07/29 09:25:41;;;;;;;7.28;6.97;;;;;;;-143.83;100.00;62900.06;5109170;28;20026;-64
2022/07/29 09:28:16;;;;;;;7.35;7.05;;;;;;;-143.83;100.00;62900.06;5109127;28;20106;-63
2022/07/29 09:30:59;;;;;;;7.10;6.80;;;;;;;-143.83;100.00;62900.06;5107547;28;20019;-64
2022/07/29 09:33:32;;;;;;;7.40;7.10;;;;;;;-143.83;100.00;62900.06;5107580;28;20024;-64
2022/07/29 09:36:09;;;;;;;7.22;6.93;;;;;;;-143.83;100.00;62900.06;5109074;27;20024;-65
2022/07/29 09:38:37;;;;;;;7.10;6.80;;;;;;;-143.83;100.00;62900.06;5105765;28;20051;-66
2022/07/29 09:41:05;;;;;;;7.10;6.80;;;;;;;-143.83;100.00;62900.06;5096137;28;20034;-65
2022/07/29 09:43:30;;;;;;;7.10;6.80;;;;;;;-143.83;100.00;62900.06;5106756;28;20107;-65
2022/07/29 09:46:14;;;;;;;7.28;6.97;;;;;;;-143.83;100.00;62900.06;5108643;28;20107;-65
2022/07/29 09:48:40;;;;;;;7.30;7.00;;;;;;;-143.83;100.00;62900.06;5102160;28;20027;-65
2022/07/29 09:51:17;;;;;;;7.28;6.97;;;;;;;-143.83;100.00;62900.06;5098228;28;20037;-65
2022/07/29 09:53:42;;;;;;;7.25;6.95;;;;;;;-143.83;100.00;62900.06;5103592;28;20026;-65
2022/07/29 09:56:10;;;;;;;7.10;6.80;;;;;;;-143.83;100.00;62900.06;5103363;28;20035;-63
2022/07/29 09:58:35;;;;;;;7.38;7.07;;;;;;;-143.83;100.00;62900.06;5103413;28;20122;-64
2022/07/29 10:01:02;;;;;;;7.45;7.15;;;;;;;-143.83;100.00;62900.06;5108190;28;20103;-64
2022/07/29 10:03:27;;;;;;;7.20;6.90;;;;;;;-143.83;100.00;62900.06;5105901;28;20080;-63
2022/07/29 10:06:04;;;;;;;7.28;6.97;;;;;;;-143.83;100.00;62900.06;5105508;28;20016;-63
2022/07/29 10:08:31;;;;;;;6.93;6.63;;;;;;;-143.83;100.00;62900.06;5113110;27;20038;-64
2022/07/29 10:11:10;;;;;;;7.20;6.90;;;;;;;-143.83;100.00;62900.06;5120533;27;20106;-64
2022/07/29 10:13:36;;;;;;;7.10;6.80;;;;;;;-143.83;100.00;62900.06;5104696;28;20064;-64
2022/07/29 10:16:02;;;;;;;7.50;7.20;;;;;;;-143.83;100.00;62900.06;5112941;28;20031;-65
2022/07/29 10:18:28;;;;;;;7.20;6.90;;;;;;;-143.83;100.00;62900.06;5110104;27;20038;-64
2022/07/29 10:20:54;;;;;;;7.25;6.95;;;;;;;-143.83;100.00;62900.06;5098638;28;20028;-64
2022/07/29 10:23:20;;;;;;;7.28;6.97;;;;;;;-143.83;100.00;62900.06;5112705;28;20030;-64
2022/07/29 10:25:46;;;;;;;7.68;7.38;;;;;;;-143.83;100.00;62900.06;5111920;27;20442;-64
2022/07/29 10:28:12;;;;;;;6.90;6.60;;;;;;;-143.83;100.00;62900.06;5107108;28;20035;-63
2022/07/29 10:30:39;;;;;;;7.10;6.80;;;;;;;-143.83;100.00;62900.06;5111958;28;20036;-64
2022/07/29 10:33:42;;;;;;;7.22;6.93;;;;;;;-143.83;100.00;62900.06;5112117;28;20077;-63
2022/07/29 10:36:55;;;;;;;7.32;7.03;;;;;;;-143.83;100.00;62900.06;5111190;28;20031;-63
2022/07/29 10:39:46;;;;;;;7.07;6.78;;;;;;;-143.83;100.00;62900.06;5098817;28;20114;-64
2022/07/29 10:42:19;;;;;;;7.47;7.18;;;;;;;-143.83;100.00;62900.06;5110992;27;20043;-63
2022/07/29 10:44:45;;;;;;;7.07;6.78;;;;;;;-143.83;100.00;62900.06;5103356;28;20031;-64
2022/07/29 10:47:22;;;;;;;7.30;7.00;;;;;;;-143.83;100.00;62900.06;5107091;28;20020;-64
2022/07/29 10:50:03;;;;;;;7.00;6.70;;;;;;;-143.83;100.00;62900.06;5107903;28;20024;-63
2022/07/29 10:52:52;;;;;;;7.55;7.25;;;;;;;-143.83;100.00;62900.06;5111296;28;20392;-64
2022/07/29 10:55:39;;;;;;;7.20;6.90;;;;;;;-143.83;100.00;62900.06;5110861;27;20035;-64
2022/07/29 10:58:12;;;;;;;7.40;7.10;;;;;;;-143.83;100.00;62900.06;5103915;28;20027;-64
2022/07/29 11:00:37;;;;;;;7.00;6.70;;;;;;;-143.83;100.00;62900.06;5111490;27;20077;-65
2022/07/29 11:03:03;;;;;;;7.30;7.00;;;;;;;-143.83;100.00;62900.06;5100589;28;20032;-65
2022/07/29 11:05:31;;;;;;;7.43;7.13;;;;;;;-143.83;100.00;62900.06;5106738;28;20440;-65
2022/07/29 11:08:12;;;;;;;6.95;6.65;;;;;;;-143.83;100.00;62900.06;5110035;28;20020;-65
2022/07/29 11:10:39;;;;;;;7.38;7.07;;;;;;;-143.83;100.00;62900.06;5101280;28;20027;-64
2022/07/29 11:13:04;;;;;;;7.25;6.95;;;;;;;-143.83;100.00;62900.06;5111381;28;20020;-63
2022/07/29 11:15:54;;;;;;;7.22;6.93;;;;;;;-143.83;100.00;62900.06;5116250;27;20092;-64
2022/07/29 11:18:20;;;;;;;7.22;6.93;;;;;;;-143.83;100.00;62900.06;5110900;27;20560;-64